Jp Tsubaki — JD2817 — position and weather

sailwx.info

Track history (hours):
 
Tides and Currents Weather Stations Pressure Air Temp Water Temp Dewpoint Dewpoint Depression Visibility Wind Speed Wind Dir Waves Ship Positions

Jp Tsubaki

Last reported at 2017-Aug-18 10:28 UTC. Time now 2017-Aug-18 10:43 UTC.
Position N 35°30' E 139°43'.

Length 115 m; draft 6.4 m.

Type: Cargo ship. MMSI: 431000734.

Date/timePositionNaut miles runAvg speedWind from/ knotsBaromVisibWave heightAir tempDewpointWater temp
2017-Aug-18 10:28N 35°30' E 139°43'0 0.0
2017-Aug-18 09:58N 35°30' E 139°43'0 0.0
2017-Aug-18 09:28N 35°30' E 139°43'0 0.0
2017-Aug-18 08:58N 35°30' E 139°43'0 0.0
2017-Aug-18 08:28N 35°30' E 139°43'0 0.8
2017-Aug-18 08:01N 35°29' E 139°43'4 7.4
2017-Aug-18 07:30N 35°26' E 139°43'4 7.8
2017-Aug-18 07:00N 35°24' E 139°39'0 0.4
2017-Aug-18 06:31N 35°24' E 139°39'0 0.0
2017-Aug-18 05:58N 35°24' E 139°39'0 0.0
2017-Aug-18 05:28N 35°24' E 139°39'0 0.0
2017-Aug-18 04:58N 35°24' E 139°39'0 0.0
2017-Aug-18 04:28N 35°24' E 139°39'0 0.0
2017-Aug-18 03:58N 35°24' E 139°39'0 0.0
2017-Aug-18 03:22N 35°24' E 139°39'0 0.0
2017-Aug-18 02:58N 35°24' E 139°39'0 0.0
2017-Aug-18 02:28N 35°24' E 139°39'0 0.0
2017-Aug-18 01:58N 35°24' E 139°39'0 0.0
2017-Aug-18 01:28N 35°24' E 139°39'0 0.1
2017-Aug-18 00:58N 35°24' E 139°39'0 0.1
2017-Aug-18 00:22N 35°24' E 139°39'0 0.0
2017-Aug-18 00:00N 35°24' E 139°39'0 0.6
2017-Aug-17 23:30N 35°24' E 139°38'4 7.8
2017-Aug-17 23:00N 35°25' E 139°43'612.0
2017-Aug-17 22:30N 35°28' E 139°49'4 8.3
2017-Aug-17 22:00N 35°29' E 139°54'0 0.2
2017-Aug-17 21:29N 35°29' E 139°54'0 0.0
2017-Aug-17 20:59N 35°29' E 139°54'0 0.0
2017-Aug-17 20:29N 35°29' E 139°54'0 0.0
2017-Aug-17 19:59N 35°29' E 139°54'0 0.0
2017-Aug-17 19:29N 35°29' E 139°54'0 0.0
2017-Aug-17 18:59N 35°29' E 139°54'0 0.0
2017-Aug-17 18:29N 35°29' E 139°54'0 0.0
2017-Aug-17 17:56N 35°29' E 139°54'0 0.0
2017-Aug-17 17:29N 35°29' E 139°54'0 0.0
2017-Aug-17 16:59N 35°29' E 139°54'0 0.0
2017-Aug-17 16:26N 35°29' E 139°54'0 0.0
2017-Aug-17 15:59N 35°29' E 139°54'0 0.1
2017-Aug-17 15:29N 35°29' E 139°54'0 0.0
2017-Aug-17 14:59N 35°29' E 139°54'0 0.0
2017-Aug-17 14:02N 35°29' E 139°54'0 0.0
2017-Aug-17 13:59N 35°29' E 139°54'0 0.0
2017-Aug-17 13:17N 35°29' E 139°54'0 0.3
2017-Aug-17 13:00N 35°29' E 139°54'3 6.6
2017-Aug-17 12:30N 35°27' E 139°58'0 0.3
2017-Aug-17 12:00N 35°27' E 139°58'0 0.0
2017-Aug-17 11:30N 35°27' E 139°58'0 0.0
2017-Aug-17 11:00N 35°27' E 139°58'0 0.0
2017-Aug-17 10:30N 35°27' E 139°58'0 0.0
2017-Aug-17 10:00N 35°27' E 139°58'0 0.0
2017-Aug-17 09:27N 35°27' E 139°58'0 0.0
2017-Aug-17 08:45N 35°27' E 139°58'0 0.0
2017-Aug-17 08:27N 35°27' E 139°58'0 0.1
2017-Aug-17 08:00N 35°27' E 139°58'4 8.2
2017-Aug-17 07:30N 35°29' E 139°53'612.9
2017-Aug-17 07:00N 35°26' E 139°46'611.6
2017-Aug-17 06:30N 35°24' E 139°40'1 2.4
2017-Aug-17 06:00N 35°24' E 139°39'0 0.0
2017-Aug-17 05:30N 35°24' E 139°39'0 0.0
2017-Aug-17 05:00N 35°24' E 139°39'0 0.0
2017-Aug-17 04:30N 35°24' E 139°39'0 0.0
2017-Aug-17 04:00N 35°24' E 139°39'0 0.0
2017-Aug-17 03:30N 35°24' E 139°39'0 0.0
2017-Aug-17 03:00N 35°24' E 139°39'0 0.0
2017-Aug-17 02:30N 35°24' E 139°39'0 0.0
2017-Aug-17 02:00N 35°24' E 139°39'0 0.0
2017-Aug-17 01:30N 35°24' E 139°39'0 0.0
2017-Aug-17 01:00N 35°24' E 139°39'0 0.0
2017-Aug-17 00:30N 35°24' E 139°39'0 0.0
2017-Aug-17 00:00N 35°24' E 139°39'0 0.0
2017-Aug-16 23:30N 35°24' E 139°39'1 1.3
2017-Aug-16 23:00N 35°24' E 139°39'5 9.2
2017-Aug-16 22:30N 35°25' E 139°44'611.7
2017-Aug-16 22:00N 35°29' E 139°50'3 6.7
2017-Aug-16 21:30N 35°29' E 139°54'0 0.1
2017-Aug-16 20:58N 35°29' E 139°54'0 0.0
2017-Aug-16 20:28N 35°29' E 139°54'0 0.1
2017-Aug-16 19:58N 35°29' E 139°54'0 0.0
2017-Aug-16 19:28N 35°29' E 139°54'0 0.0
2017-Aug-16 18:55N 35°29' E 139°54'0 0.0
2017-Aug-16 18:28N 35°29' E 139°54'0 0.0
2017-Aug-16 17:58N 35°29' E 139°54'0 0.0
2017-Aug-16 17:28N 35°29' E 139°54'0 0.1
2017-Aug-16 16:58N 35°29' E 139°54'0 0.0
2017-Aug-16 16:28N 35°29' E 139°54'0 0.0
2017-Aug-16 15:43N 35°29' E 139°54'0 0.0
2017-Aug-16 15:28N 35°29' E 139°54'0 0.0
2017-Aug-16 14:58N 35°29' E 139°54'0 0.1
2017-Aug-16 14:28N 35°29' E 139°54'0 0.0
2017-Aug-16 13:58N 35°29' E 139°54'0 0.0
2017-Aug-16 13:28N 35°29' E 139°54'0 0.0
2017-Aug-16 12:58N 35°29' E 139°54'0 0.0
2017-Aug-16 12:28N 35°29' E 139°54'0 0.0
2017-Aug-16 11:58N 35°29' E 139°54'0 0.0
2017-Aug-16 11:28N 35°29' E 139°54'0 0.0
2017-Aug-16 10:58N 35°29' E 139°54'0 0.0
2017-Aug-16 10:28N 35°29' E 139°54'0 0.0
2017-Aug-16 09:58N 35°29' E 139°54'0 0.0
2017-Aug-16 09:28N 35°29' E 139°54'0 0.0
2017-Aug-16 08:58N 35°29' E 139°54'0 0.0
2017-Aug-16 08:28N 35°29' E 139°54'0 0.0
2017-Aug-16 07:58N 35°29' E 139°54'0 0.0
2017-Aug-16 07:28N 35°29' E 139°54'0 0.0
2017-Aug-16 06:58N 35°29' E 139°54'0 0.0
2017-Aug-16 06:28N 35°29' E 139°54'2 4.6
2017-Aug-16 06:00N 35°29' E 139°57'2 3.8
2017-Aug-16 05:30N 35°27' E 139°58'0 0.0
2017-Aug-16 05:01N 35°27' E 139°58'0 0.0
2017-Aug-16 04:25N 35°27' E 139°58'0 0.0
2017-Aug-16 03:58N 35°27' E 139°58'0 0.0
2017-Aug-16 03:28N 35°27' E 139°58'0 0.0
2017-Aug-16 02:58N 35°27' E 139°58'0 0.0
2017-Aug-16 02:25N 35°27' E 139°58'0 0.0
2017-Aug-16 01:58N 35°27' E 139°58'0 0.0
2017-Aug-16 01:25N 35°27' E 139°58'0 0.0
2017-Aug-16 00:59N 35°27' E 139°58'1 2.7
2017-Aug-16 00:29N 35°29' E 139°57'511.1
2017-Aug-16 00:00N 35°28' E 139°51'611.4
2017-Aug-15 23:30N 35°25' E 139°45'5 9.8
2017-Aug-15 23:00N 35°24' E 139°39'1 1.4
2017-Aug-15 22:30N 35°24' E 139°39'0 0.0
2017-Aug-15 22:00N 35°24' E 139°39'0 0.0
2017-Aug-15 21:30N 35°24' E 139°39'0 0.0
2017-Aug-15 21:00N 35°24' E 139°39'0 0.0
2017-Aug-15 20:30N 35°24' E 139°39'0 0.0
2017-Aug-15 20:00N 35°24' E 139°39'0 0.0
2017-Aug-15 19:30N 35°24' E 139°39'0 0.0
2017-Aug-15 19:00N 35°24' E 139°39'0 0.0
2017-Aug-15 18:30N 35°24' E 139°39'0 0.0
2017-Aug-15 18:00N 35°24' E 139°39'0 0.0
2017-Aug-15 17:30N 35°24' E 139°39'0 0.0
2017-Aug-15 17:00N 35°24' E 139°39'0 0.0
2017-Aug-15 16:30N 35°24' E 139°39'0 0.0
2017-Aug-15 16:00N 35°24' E 139°39'0 0.0
2017-Aug-15 15:30N 35°24' E 139°39'0 0.0
2017-Aug-15 15:00N 35°24' E 139°39'0 0.0
2017-Aug-15 14:30N 35°24' E 139°39'0 0.0
2017-Aug-15 14:00N 35°24' E 139°39'0 0.0
2017-Aug-15 13:30N 35°24' E 139°39'0 0.0
2017-Aug-15 13:00N 35°24' E 139°39'0 0.0
2017-Aug-15 12:30N 35°24' E 139°39'0 0.0
2017-Aug-15 12:00N 35°24' E 139°39'0 0.0
2017-Aug-15 11:30N 35°24' E 139°39'0 0.0
2017-Aug-15 11:00N 35°24' E 139°39'0 0.0
2017-Aug-15 10:30N 35°24' E 139°39'0 0.0
2017-Aug-15 10:00N 35°24' E 139°39'0 0.0
2017-Aug-15 09:30N 35°24' E 139°39'0 0.0
2017-Aug-15 09:00N 35°24' E 139°39'0 0.0
2017-Aug-15 08:30N 35°24' E 139°39'0 0.6
2017-Aug-15 08:00N 35°24' E 139°38'3 6.5
2017-Aug-15 07:31N 35°24' E 139°42'4 8.9
2017-Aug-15 07:01N 35°27' E 139°46'3 6.1
2017-Aug-15 06:30N 35°30' E 139°45'2 3.9
2017-Aug-15 06:01N 35°30' E 139°43'0 0.0
2017-Aug-15 05:30N 35°30' E 139°43'0 0.0
2017-Aug-15 05:00N 35°30' E 139°43'0 0.0
2017-Aug-15 04:30N 35°30' E 139°43'0 0.0
2017-Aug-15 04:00N 35°30' E 139°43'0 0.0
2017-Aug-15 03:30N 35°30' E 139°43'0 0.0
2017-Aug-15 03:00N 35°30' E 139°43'0 0.0
2017-Aug-15 02:30N 35°30' E 139°43'0 0.0
2017-Aug-15 02:00N 35°30' E 139°43'0 0.0
2017-Aug-15 01:30N 35°30' E 139°43'0 0.0
2017-Aug-15 01:00N 35°30' E 139°43'0 0.0
2017-Aug-15 00:30N 35°30' E 139°43'0 0.0
2017-Aug-15 00:00N 35°30' E 139°43'3 5.0
2017-Aug-14 23:30N 35°27' E 139°43'5 9.3
2017-Aug-14 23:00N 35°23' E 139°40'1 2.5
2017-Aug-14 22:30N 35°24' E 139°39'0 0.0
2017-Aug-14 22:00N 35°24' E 139°39'0 0.0
2017-Aug-14 21:30N 35°24' E 139°39'0 0.0
2017-Aug-14 20:57N 35°24' E 139°39'0 0.0
2017-Aug-14 20:30N 35°24' E 139°39'0 0.0
2017-Aug-14 20:00N 35°24' E 139°39'0 0.0
2017-Aug-14 19:30N 35°24' E 139°39'0 0.0
2017-Aug-14 19:00N 35°24' E 139°39'0 0.0
2017-Aug-14 18:30N 35°24' E 139°39'0 0.0
2017-Aug-14 18:00N 35°24' E 139°39'0 0.0
2017-Aug-14 17:30N 35°24' E 139°39'0 0.0
2017-Aug-14 17:00N 35°24' E 139°39'0 0.0
2017-Aug-14 16:30N 35°24' E 139°39'0 0.0
2017-Aug-14 16:00N 35°24' E 139°39'0 0.0
2017-Aug-14 15:30N 35°24' E 139°39'0 0.0
2017-Aug-14 15:00N 35°24' E 139°39'0 0.0
2017-Aug-14 14:30N 35°24' E 139°39'0 0.0
2017-Aug-14 14:00N 35°24' E 139°39'0 0.0
2017-Aug-14 13:30N 35°24' E 139°39'0 0.0
2017-Aug-14 13:00N 35°24' E 139°39'0 0.0
2017-Aug-14 12:30N 35°24' E 139°39'0 0.0
2017-Aug-14 11:57N 35°24' E 139°39'0 0.0
2017-Aug-14 11:30N 35°24' E 139°39'0 0.0
2017-Aug-14 11:00N 35°24' E 139°39'0 0.0
2017-Aug-14 10:30N 35°24' E 139°39'0 0.0
2017-Aug-14 09:57N 35°24' E 139°39'0 0.0
2017-Aug-14 09:30N 35°24' E 139°39'0 0.0
2017-Aug-14 09:00N 35°24' E 139°39'0 0.0
2017-Aug-14 08:30N 35°24' E 139°39'0 0.0
2017-Aug-14 08:00N 35°24' E 139°39'0 0.0
2017-Aug-14 07:30N 35°24' E 139°39'0 0.7
2017-Aug-14 07:00N 35°24' E 139°38'1 2.7
2017-Aug-14 06:30N 35°24' E 139°40'0 0.0
2017-Aug-14 06:00N 35°24' E 139°40'0 0.0
2017-Aug-14 05:30N 35°24' E 139°40'0 0.0
2017-Aug-14 05:00N 35°24' E 139°40'0 0.0
2017-Aug-14 04:30N 35°24' E 139°40'0 0.0
2017-Aug-14 04:00N 35°24' E 139°40'0 0.0
2017-Aug-14 03:30N 35°24' E 139°40'0 0.0
2017-Aug-14 03:00N 35°24' E 139°40'0 0.0
2017-Aug-14 02:30N 35°24' E 139°40'0 0.0
2017-Aug-14 02:00N 35°24' E 139°40'0 0.0
2017-Aug-14 01:30N 35°24' E 139°40'0 0.0
2017-Aug-14 01:00N 35°24' E 139°40'0 0.0
2017-Aug-14 00:30N 35°24' E 139°40'0 0.0
2017-Aug-14 00:00N 35°24' E 139°40'0 0.0
2017-Aug-13 23:30N 35°24' E 139°40'0 0.0
2017-Aug-13 23:00N 35°24' E 139°40'1 1.2
2017-Aug-13 22:30N 35°24' E 139°39'1 1.3
2017-Aug-13 22:00N 35°24' E 139°39'0 0.0
2017-Aug-13 21:29N 35°24' E 139°39'0 0.0
2017-Aug-13 21:00N 35°24' E 139°39'0 0.0
2017-Aug-13 20:30N 35°24' E 139°39'0 0.0
2017-Aug-13 19:59N 35°24' E 139°39'0 0.0
2017-Aug-13 19:26N 35°24' E 139°39'0 0.0
2017-Aug-13 18:59N 35°24' E 139°39'0 0.0
2017-Aug-13 18:30N 35°24' E 139°39'0 0.0
2017-Aug-13 18:00N 35°24' E 139°39'0 0.0
2017-Aug-13 17:30N 35°24' E 139°39'0 0.0
2017-Aug-13 16:59N 35°24' E 139°39'0 0.0
2017-Aug-13 16:29N 35°24' E 139°39'0 0.0
2017-Aug-13 15:56N 35°24' E 139°39'0 0.0
2017-Aug-13 15:29N 35°24' E 139°39'0 0.0
2017-Aug-13 14:59N 35°24' E 139°39'0 0.0
2017-Aug-13 14:29N 35°24' E 139°39'0 0.0
2017-Aug-13 13:59N 35°24' E 139°39'0 0.1
2017-Aug-13 13:29N 35°24' E 139°39'0 0.1
2017-Aug-13 12:59N 35°24' E 139°39'0 0.1
2017-Aug-13 12:29N 35°24' E 139°39'0 0.0
2017-Aug-13 11:59N 35°24' E 139°39'0 0.0
2017-Aug-13 11:29N 35°24' E 139°39'0 0.0
2017-Aug-13 10:59N 35°24' E 139°39'0 0.0
2017-Aug-13 10:29N 35°24' E 139°39'0 0.0
2017-Aug-13 09:59N 35°24' E 139°39'0 0.0
2017-Aug-13 09:29N 35°24' E 139°39'0 0.0
2017-Aug-13 08:59N 35°24' E 139°39'0 0.0
2017-Aug-13 08:30N 35°24' E 139°39'0 0.7
2017-Aug-13 08:00N 35°24' E 139°38'3 5.9
2017-Aug-13 07:30N 35°24' E 139°42'510.6
2017-Aug-13 07:00N 35°28' E 139°46'3 5.2
2017-Aug-13 06:30N 35°30' E 139°45'1 2.6
2017-Aug-13 06:00N 35°30' E 139°43'0 0.0
2017-Aug-13 05:30N 35°30' E 139°43'0 0.0
2017-Aug-13 05:00N 35°30' E 139°43'0 0.0
2017-Aug-13 04:30N 35°30' E 139°43'0 0.0
2017-Aug-13 04:00N 35°30' E 139°43'0 0.0
2017-Aug-13 03:30N 35°30' E 139°43'0 0.0
2017-Aug-13 03:00N 35°30' E 139°43'0 0.0
2017-Aug-13 02:30N 35°30' E 139°43'0 0.0
2017-Aug-13 02:00N 35°30' E 139°43'0 0.0
2017-Aug-13 01:30N 35°30' E 139°43'0 0.0
2017-Aug-13 01:00N 35°30' E 139°43'0 0.0
2017-Aug-13 00:30N 35°30' E 139°43'0 0.0
2017-Aug-13 00:00N 35°30' E 139°43'0 0.0
2017-Aug-12 23:30N 35°30' E 139°43'0 0.0
2017-Aug-12 23:00N 35°30' E 139°43'0 0.0
2017-Aug-12 22:27N 35°30' E 139°43'1 1.2
2017-Aug-12 22:00N 35°29' E 139°43'4 8.3
2017-Aug-12 21:30N 35°25' E 139°44'2 4.5
2017-Aug-12 21:00N 35°23' E 139°45'0 0.0
2017-Aug-12 20:30N 35°23' E 139°45'0 0.0
2017-Aug-12 20:00N 35°23' E 139°45'0 0.0
2017-Aug-12 19:30N 35°23' E 139°45'0 0.0
2017-Aug-12 19:00N 35°23' E 139°45'0 0.0
2017-Aug-12 18:30N 35°23' E 139°45'0 0.0
2017-Aug-12 18:00N 35°23' E 139°45'0 0.0
2017-Aug-12 17:30N 35°23' E 139°45'0 0.0
2017-Aug-12 17:00N 35°23' E 139°45'0 0.1
2017-Aug-12 16:30N 35°23' E 139°45'0 0.0
2017-Aug-12 16:00N 35°23' E 139°45'0 0.0
2017-Aug-12 15:30N 35°23' E 139°45'0 0.0
2017-Aug-12 15:00N 35°23' E 139°45'0 0.1
2017-Aug-12 14:30N 35°23' E 139°45'4 7.7
2017-Aug-12 14:00N 35°24' E 139°40'1 2.5
2017-Aug-12 13:29N 35°24' E 139°39'0 0.0
2017-Aug-12 12:59N 35°24' E 139°39'0 0.0
2017-Aug-12 12:29N 35°24' E 139°39'0 0.0
2017-Aug-12 11:59N 35°24' E 139°39'0 0.0
2017-Aug-12 11:29N 35°24' E 139°39'0 0.0
2017-Aug-12 10:59N 35°24' E 139°39'0 0.0
2017-Aug-12 10:29N 35°24' E 139°39'0 0.0
2017-Aug-12 09:59N 35°24' E 139°39'0 0.0
2017-Aug-12 09:29N 35°24' E 139°39'0 0.0
2017-Aug-12 08:59N 35°24' E 139°39'0 0.0
2017-Aug-12 08:29N 35°24' E 139°39'0 0.0
2017-Aug-12 07:59N 35°24' E 139°39'0 0.0
2017-Aug-12 07:29N 35°24' E 139°39'0 0.0
2017-Aug-12 06:59N 35°24' E 139°39'0 0.5
2017-Aug-12 06:30N 35°24' E 139°38'3 6.4
2017-Aug-12 06:00N 35°24' E 139°42'612.1
2017-Aug-12 05:30N 35°29' E 139°47'3 5.5
2017-Aug-12 05:00N 35°30' E 139°44'1 1.8
2017-Aug-12 04:30N 35°30' E 139°43'0 0.0
2017-Aug-12 04:00N 35°30' E 139°43'0 0.0
2017-Aug-12 03:30N 35°30' E 139°43'0 0.0
2017-Aug-12 03:00N 35°30' E 139°43'0 0.0
2017-Aug-12 02:30N 35°30' E 139°43'0 0.0
2017-Aug-12 02:00N 35°30' E 139°43'0 0.0
2017-Aug-12 01:30N 35°30' E 139°43'0 0.0
2017-Aug-12 01:00N 35°30' E 139°43'0 0.0
2017-Aug-12 00:30N 35°30' E 139°43'0 0.0
2017-Aug-12 00:00N 35°30' E 139°43'0 0.0
2017-Aug-11 23:30N 35°30' E 139°43'0 0.0
2017-Aug-11 23:00N 35°30' E 139°43'0 0.0
2017-Aug-11 22:30N 35°30' E 139°43'1 1.8
2017-Aug-11 22:00N 35°29' E 139°42'5 9.1
2017-Aug-11 21:30N 35°25' E 139°45'2 4.7
2017-Aug-11 21:00N 35°23' E 139°44'0 0.0
2017-Aug-11 20:30N 35°23' E 139°44'0 0.0
2017-Aug-11 20:00N 35°23' E 139°44'0 0.0
2017-Aug-11 19:30N 35°23' E 139°44'0 0.0
2017-Aug-11 19:00N 35°23' E 139°44'0 0.0
2017-Aug-11 18:30N 35°23' E 139°44'0 0.0
2017-Aug-11 18:00N 35°23' E 139°44'0 0.0
2017-Aug-11 17:30N 35°23' E 139°44'0 0.0
2017-Aug-11 17:00N 35°23' E 139°44'0 0.0
2017-Aug-11 16:30N 35°23' E 139°44'0 0.0
2017-Aug-11 16:00N 35°23' E 139°44'0 0.0
2017-Aug-11 15:30N 35°23' E 139°44'0 0.0
2017-Aug-11 15:00N 35°23' E 139°44'0 0.0
2017-Aug-11 14:30N 35°23' E 139°44'4 3.9
2017-Aug-11 13:30N 35°24' E 139°40'1 1.9
2017-Aug-11 12:58N 35°24' E 139°39'0 0.0
2017-Aug-11 12:25N 35°24' E 139°39'0 0.0
2017-Aug-11 11:58N 35°24' E 139°39'0 0.0
2017-Aug-11 11:28N 35°24' E 139°39'0 0.0
2017-Aug-11 10:58N 35°24' E 139°39'0 0.0
2017-Aug-11 10:28N 35°24' E 139°39'0 0.0
2017-Aug-11 09:58N 35°24' E 139°39'0 0.0
2017-Aug-11 09:28N 35°24' E 139°39'0 0.0
2017-Aug-11 08:58N 35°24' E 139°39'0 0.0
2017-Aug-11 08:28N 35°24' E 139°39'0 0.0
2017-Aug-11 07:58N 35°24' E 139°39'0 0.0
2017-Aug-11 07:28N 35°24' E 139°39'0 0.0
2017-Aug-11 06:58N 35°24' E 139°39'0 0.3
2017-Aug-11 06:31N 35°24' E 139°38'2 4.5
2017-Aug-11 06:00N 35°23' E 139°41'510.6
2017-Aug-11 05:30N 35°27' E 139°46'3 6.6
2017-Aug-11 05:01N 35°30' E 139°46'2 4.5
2017-Aug-11 04:31N 35°30' E 139°43'0 0.0
2017-Aug-11 04:00N 35°30' E 139°43'0 0.0
2017-Aug-11 03:31N 35°30' E 139°43'0 0.0
2017-Aug-11 03:01N 35°30' E 139°43'0 0.0
2017-Aug-11 02:28N 35°30' E 139°43'0 0.0
2017-Aug-11 01:58N 35°30' E 139°43'0 0.0
2017-Aug-11 01:28N 35°30' E 139°43'0 0.0
2017-Aug-11 00:58N 35°30' E 139°43'0 0.0
2017-Aug-11 00:28N 35°30' E 139°43'0 0.0
2017-Aug-10 23:58N 35°30' E 139°43'0 0.0
2017-Aug-10 23:28N 35°30' E 139°43'0 0.0
2017-Aug-10 22:58N 35°30' E 139°43'0 0.1
2017-Aug-10 22:30N 35°30' E 139°43'2 4.4
2017-Aug-10 22:00N 35°28' E 139°43'3 5.6
2017-Aug-10 21:30N 35°26' E 139°45'2 4.2
2017-Aug-10 21:00N 35°24' E 139°44'0 0.0
2017-Aug-10 20:28N 35°24' E 139°44'0 0.0
2017-Aug-10 19:58N 35°24' E 139°44'0 0.0
2017-Aug-10 19:28N 35°24' E 139°44'0 0.0
2017-Aug-10 18:58N 35°24' E 139°44'0 0.0
2017-Aug-10 18:28N 35°24' E 139°44'0 0.0
2017-Aug-10 17:58N 35°24' E 139°44'0 0.2
2017-Aug-10 17:28N 35°24' E 139°44'0 0.0
2017-Aug-10 16:58N 35°24' E 139°44'0 0.0
2017-Aug-10 16:28N 35°24' E 139°44'0 0.0
2017-Aug-10 15:58N 35°24' E 139°44'0 0.0
2017-Aug-10 15:28N 35°24' E 139°44'0 0.2
2017-Aug-10 15:00N 35°24' E 139°44'4 8.0
2017-Aug-10 14:30N 35°24' E 139°39'1 0.7
2017-Aug-10 13:28N 35°24' E 139°39'0 0.0
2017-Aug-10 12:58N 35°24' E 139°39'0 0.0
2017-Aug-10 12:28N 35°24' E 139°39'0 0.0
2017-Aug-10 11:58N 35°24' E 139°39'0 0.0
2017-Aug-10 11:28N 35°24' E 139°39'0 0.0
2017-Aug-10 10:58N 35°24' E 139°39'0 0.0
2017-Aug-10 10:28N 35°24' E 139°39'0 0.0
2017-Aug-10 09:58N 35°24' E 139°39'0 0.0
2017-Aug-10 09:28N 35°24' E 139°39'0 0.1
2017-Aug-10 08:58N 35°24' E 139°39'0 0.1
2017-Aug-10 08:28N 35°24' E 139°39'0 0.4
2017-Aug-10 08:01N 35°24' E 139°38'3 5.5
2017-Aug-10 07:31N 35°24' E 139°42'611.8
2017-Aug-10 07:00N 35°27' E 139°48'611.1
2017-Aug-10 06:31N 35°30' E 139°54'4 8.7
2017-Aug-10 06:00N 35°27' E 139°58'0 0.2
2017-Aug-10 05:31N 35°27' E 139°58'0 0.0
2017-Aug-10 04:58N 35°27' E 139°58'0 0.0
2017-Aug-10 04:28N 35°27' E 139°58'0 0.0
2017-Aug-10 03:58N 35°27' E 139°58'0 0.0
2017-Aug-10 03:28N 35°27' E 139°58'0 0.0
2017-Aug-10 02:58N 35°27' E 139°58'0 0.0
2017-Aug-10 02:28N 35°27' E 139°58'0 0.0
2017-Aug-10 01:58N 35°27' E 139°58'0 0.0
2017-Aug-10 01:28N 35°27' E 139°58'0 0.0
2017-Aug-10 00:56N 35°27' E 139°58'1 2.6
2017-Aug-10 00:26N 35°29' E 139°57'511.2
2017-Aug-10 00:00N 35°28' E 139°52'612.0
2017-Aug-09 23:30N 35°25' E 139°45'510.1
2017-Aug-09 23:00N 35°24' E 139°39'1 1.8
2017-Aug-09 22:28N 35°24' E 139°39'0 0.0
2017-Aug-09 21:56N 35°24' E 139°39'0 0.0
2017-Aug-09 21:29N 35°24' E 139°39'0 0.0
2017-Aug-09 20:58N 35°24' E 139°39'0 0.0
2017-Aug-09 20:28N 35°24' E 139°39'0 0.0
2017-Aug-09 19:58N 35°24' E 139°39'0 0.0
2017-Aug-09 19:29N 35°24' E 139°39'0 0.0
2017-Aug-09 18:58N 35°24' E 139°39'0 0.0
2017-Aug-09 18:28N 35°24' E 139°39'0 0.0
2017-Aug-09 17:58N 35°24' E 139°39'0 0.0
2017-Aug-09 17:28N 35°24' E 139°39'0 0.0
2017-Aug-09 16:59N 35°24' E 139°39'0 0.0
2017-Aug-09 16:26N 35°24' E 139°39'0 0.0
2017-Aug-09 15:59N 35°24' E 139°39'0 0.0
2017-Aug-09 15:29N 35°24' E 139°39'0 0.0
2017-Aug-09 14:58N 35°24' E 139°39'0 0.0
2017-Aug-09 14:28N 35°24' E 139°39'0 0.0
2017-Aug-09 13:59N 35°24' E 139°39'0 0.0
2017-Aug-09 13:28N 35°24' E 139°39'0 0.0
2017-Aug-09 12:56N 35°24' E 139°39'0 0.0
2017-Aug-09 12:28N 35°24' E 139°39'0 0.0
2017-Aug-09 11:58N 35°24' E 139°39'0 0.0
2017-Aug-09 11:29N 35°24' E 139°39'0 0.0
2017-Aug-09 10:59N 35°24' E 139°39'0 0.0
2017-Aug-09 10:26N 35°24' E 139°39'0 0.0
2017-Aug-09 09:59N 35°24' E 139°39'0 0.0
2017-Aug-09 09:29N 35°24' E 139°39'0 0.0
2017-Aug-09 08:58N 35°24' E 139°39'0 0.0
2017-Aug-09 08:29N 35°24' E 139°39'0 0.7
2017-Aug-09 08:00N 35°24' E 139°38'3 5.9
2017-Aug-09 07:30N 35°22' E 139°42'2 3.8
2017-Aug-09 06:59N 35°22' E 139°44'0 0.0
2017-Aug-09 06:29N 35°22' E 139°44'0 0.0
2017-Aug-09 05:59N 35°22' E 139°44'0 0.0
2017-Aug-09 05:29N 35°22' E 139°44'0 0.0
2017-Aug-09 04:59N 35°22' E 139°44'0 0.0
2017-Aug-09 04:29N 35°22' E 139°44'0 0.0
2017-Aug-09 03:59N 35°22' E 139°44'0 0.0
2017-Aug-09 03:29N 35°22' E 139°44'0 0.0
2017-Aug-09 02:59N 35°22' E 139°44'0 0.1
2017-Aug-09 02:29N 35°22' E 139°44'0 0.1
2017-Aug-09 01:56N 35°22' E 139°44'1 1.6
2017-Aug-09 01:30N 35°22' E 139°43'3 6.5
2017-Aug-09 01:00N 35°24' E 139°40'0 0.2
2017-Aug-09 00:25N 35°24' E 139°40'0 0.0
2017-Aug-08 23:58N 35°24' E 139°40'0 0.0
2017-Aug-08 23:28N 35°24' E 139°40'0 0.0
2017-Aug-08 22:58N 35°24' E 139°40'0 0.0
2017-Aug-08 22:25N 35°24' E 139°40'0 0.0
2017-Aug-08 21:58N 35°24' E 139°40'0 0.0
2017-Aug-08 21:28N 35°24' E 139°40'0 0.0
2017-Aug-08 20:58N 35°24' E 139°40'0 0.0
2017-Aug-08 20:28N 35°24' E 139°40'0 0.0
2017-Aug-08 19:58N 35°24' E 139°40'0 0.0
2017-Aug-08 19:28N 35°24' E 139°40'0 0.0
2017-Aug-08 18:58N 35°24' E 139°40'0 0.0
2017-Aug-08 18:28N 35°24' E 139°40'0 0.0
2017-Aug-08 17:58N 35°24' E 139°40'0 0.0
2017-Aug-08 17:28N 35°24' E 139°40'0 0.0
2017-Aug-08 16:58N 35°24' E 139°40'0 0.0
2017-Aug-08 16:28N 35°24' E 139°40'0 0.0
2017-Aug-08 15:58N 35°24' E 139°40'0 0.0
2017-Aug-08 15:28N 35°24' E 139°40'0 0.0
2017-Aug-08 14:58N 35°24' E 139°40'0 0.0
2017-Aug-08 14:28N 35°24' E 139°40'0 0.0
2017-Aug-08 13:58N 35°24' E 139°40'0 0.0
2017-Aug-08 13:28N 35°24' E 139°40'0 0.0
2017-Aug-08 12:58N 35°24' E 139°40'0 0.0
2017-Aug-08 12:28N 35°24' E 139°40'0 0.0
2017-Aug-08 11:58N 35°24' E 139°40'0 0.0
2017-Aug-08 11:28N 35°24' E 139°40'0 0.0
2017-Aug-08 10:58N 35°24' E 139°40'  
Track history (hours):
 
Tides and Currents Weather Stations Pressure Air Temp Water Temp Dewpoint Dewpoint Depression Visibility Wind Speed Wind Dir Waves Ship Positions

Jp Tsubaki

Last reported at 2017-Aug-18 10:28 UTC. Time now 2017-Aug-18 10:43 UTC.
Position N 35°30' E 139°43'.

Length 115 m; draft 6.4 m.

Type: Cargo ship. MMSI: 431000734.

Date/timePositionNaut miles runAvg speedWind from/ knotsBaromVisibWave heightAir tempDewpointWater temp
2017-Aug-18 10:28N 35°30' E 139°43'0 0.0
2017-Aug-18 09:58N 35°30' E 139°43'0 0.0
2017-Aug-18 09:28N 35°30' E 139°43'0 0.0
2017-Aug-18 08:58N 35°30' E 139°43'0 0.0
2017-Aug-18 08:28N 35°30' E 139°43'0 0.8
2017-Aug-18 08:01N 35°29' E 139°43'4 7.4
2017-Aug-18 07:30N 35°26' E 139°43'4 7.8
2017-Aug-18 07:00N 35°24' E 139°39'0 0.4
2017-Aug-18 06:31N 35°24' E 139°39'0 0.0
2017-Aug-18 05:58N 35°24' E 139°39'0 0.0
2017-Aug-18 05:28N 35°24' E 139°39'0 0.0
2017-Aug-18 04:58N 35°24' E 139°39'0 0.0
2017-Aug-18 04:28N 35°24' E 139°39'0 0.0
2017-Aug-18 03:58N 35°24' E 139°39'0 0.0
2017-Aug-18 03:22N 35°24' E 139°39'0 0.0
2017-Aug-18 02:58N 35°24' E 139°39'0 0.0
2017-Aug-18 02:28N 35°24' E 139°39'0 0.0
2017-Aug-18 01:58N 35°24' E 139°39'0 0.0
2017-Aug-18 01:28N 35°24' E 139°39'0 0.1
2017-Aug-18 00:58N 35°24' E 139°39'0 0.1
2017-Aug-18 00:22N 35°24' E 139°39'0 0.0
2017-Aug-18 00:00N 35°24' E 139°39'0 0.6
2017-Aug-17 23:30N 35°24' E 139°38'4 7.8
2017-Aug-17 23:00N 35°25' E 139°43'612.0
2017-Aug-17 22:30N 35°28' E 139°49'4 8.3
2017-Aug-17 22:00N 35°29' E 139°54'0 0.2
2017-Aug-17 21:29N 35°29' E 139°54'0 0.0
2017-Aug-17 20:59N 35°29' E 139°54'0 0.0
2017-Aug-17 20:29N 35°29' E 139°54'0 0.0
2017-Aug-17 19:59N 35°29' E 139°54'0 0.0
2017-Aug-17 19:29N 35°29' E 139°54'0 0.0
2017-Aug-17 18:59N 35°29' E 139°54'0 0.0
2017-Aug-17 18:29N 35°29' E 139°54'0 0.0
2017-Aug-17 17:56N 35°29' E 139°54'0 0.0
2017-Aug-17 17:29N 35°29' E 139°54'0 0.0
2017-Aug-17 16:59N 35°29' E 139°54'0 0.0
2017-Aug-17 16:26N 35°29' E 139°54'0 0.0
2017-Aug-17 15:59N 35°29' E 139°54'0 0.1
2017-Aug-17 15:29N 35°29' E 139°54'0 0.0
2017-Aug-17 14:59N 35°29' E 139°54'0 0.0
2017-Aug-17 14:02N 35°29' E 139°54'0 0.0
2017-Aug-17 13:59N 35°29' E 139°54'0 0.0
2017-Aug-17 13:17N 35°29' E 139°54'0 0.3
2017-Aug-17 13:00N 35°29' E 139°54'3 6.6
2017-Aug-17 12:30N 35°27' E 139°58'0 0.3
2017-Aug-17 12:00N 35°27' E 139°58'0 0.0
2017-Aug-17 11:30N 35°27' E 139°58'0 0.0
2017-Aug-17 11:00N 35°27' E 139°58'0 0.0
2017-Aug-17 10:30N 35°27' E 139°58'0 0.0
2017-Aug-17 10:00N 35°27' E 139°58'0 0.0
2017-Aug-17 09:27N 35°27' E 139°58'0 0.0
2017-Aug-17 08:45N 35°27' E 139°58'0 0.0
2017-Aug-17 08:27N 35°27' E 139°58'0 0.1
2017-Aug-17 08:00N 35°27' E 139°58'4 8.2
2017-Aug-17 07:30N 35°29' E 139°53'612.9
2017-Aug-17 07:00N 35°26' E 139°46'611.6
2017-Aug-17 06:30N 35°24' E 139°40'1 2.4
2017-Aug-17 06:00N 35°24' E 139°39'0 0.0
2017-Aug-17 05:30N 35°24' E 139°39'0 0.0
2017-Aug-17 05:00N 35°24' E 139°39'0 0.0
2017-Aug-17 04:30N 35°24' E 139°39'0 0.0
2017-Aug-17 04:00N 35°24' E 139°39'0 0.0
2017-Aug-17 03:30N 35°24' E 139°39'0 0.0
2017-Aug-17 03:00N 35°24' E 139°39'0 0.0
2017-Aug-17 02:30N 35°24' E 139°39'0 0.0
2017-Aug-17 02:00N 35°24' E 139°39'0 0.0
2017-Aug-17 01:30N 35°24' E 139°39'0 0.0
2017-Aug-17 01:00N 35°24' E 139°39'0 0.0
2017-Aug-17 00:30N 35°24' E 139°39'0 0.0
2017-Aug-17 00:00N 35°24' E 139°39'0 0.0
2017-Aug-16 23:30N 35°24' E 139°39'1 1.3
2017-Aug-16 23:00N 35°24' E 139°39'5 9.2
2017-Aug-16 22:30N 35°25' E 139°44'611.7
2017-Aug-16 22:00N 35°29' E 139°50'3 6.7
2017-Aug-16 21:30N 35°29' E 139°54'0 0.1
2017-Aug-16 20:58N 35°29' E 139°54'0 0.0
2017-Aug-16 20:28N 35°29' E 139°54'0 0.1
2017-Aug-16 19:58N 35°29' E 139°54'0 0.0
2017-Aug-16 19:28N 35°29' E 139°54'0 0.0
2017-Aug-16 18:55N 35°29' E 139°54'0 0.0
2017-Aug-16 18:28N 35°29' E 139°54'0 0.0
2017-Aug-16 17:58N 35°29' E 139°54'0 0.0
2017-Aug-16 17:28N 35°29' E 139°54'0 0.1
2017-Aug-16 16:58N 35°29' E 139°54'0 0.0
2017-Aug-16 16:28N 35°29' E 139°54'0 0.0
2017-Aug-16 15:43N 35°29' E 139°54'0 0.0
2017-Aug-16 15:28N 35°29' E 139°54'0 0.0
2017-Aug-16 14:58N 35°29' E 139°54'0 0.1
2017-Aug-16 14:28N 35°29' E 139°54'0 0.0
2017-Aug-16 13:58N 35°29' E 139°54'0 0.0
2017-Aug-16 13:28N 35°29' E 139°54'0 0.0
2017-Aug-16 12:58N 35°29' E 139°54'0 0.0
2017-Aug-16 12:28N 35°29' E 139°54'0 0.0
2017-Aug-16 11:58N 35°29' E 139°54'0 0.0
2017-Aug-16 11:28N 35°29' E 139°54'0 0.0
2017-Aug-16 10:58N 35°29' E 139°54'0 0.0
2017-Aug-16 10:28N 35°29' E 139°54'0 0.0
2017-Aug-16 09:58N 35°29' E 139°54'0 0.0
2017-Aug-16 09:28N 35°29' E 139°54'0 0.0
2017-Aug-16 08:58N 35°29' E 139°54'0 0.0
2017-Aug-16 08:28N 35°29' E 139°54'0 0.0
2017-Aug-16 07:58N 35°29' E 139°54'0 0.0
2017-Aug-16 07:28N 35°29' E 139°54'0 0.0
2017-Aug-16 06:58N 35°29' E 139°54'0 0.0
2017-Aug-16 06:28N 35°29' E 139°54'2 4.6
2017-Aug-16 06:00N 35°29' E 139°57'2 3.8
2017-Aug-16 05:30N 35°27' E 139°58'0 0.0
2017-Aug-16 05:01N 35°27' E 139°58'0 0.0
2017-Aug-16 04:25N 35°27' E 139°58'0 0.0
2017-Aug-16 03:58N 35°27' E 139°58'0 0.0
2017-Aug-16 03:28N 35°27' E 139°58'0 0.0
2017-Aug-16 02:58N 35°27' E 139°58'0 0.0
2017-Aug-16 02:25N 35°27' E 139°58'0 0.0
2017-Aug-16 01:58N 35°27' E 139°58'0 0.0
2017-Aug-16 01:25N 35°27' E 139°58'0 0.0
2017-Aug-16 00:59N 35°27' E 139°58'1 2.7
2017-Aug-16 00:29N 35°29' E 139°57'511.1
2017-Aug-16 00:00N 35°28' E 139°51'611.4
2017-Aug-15 23:30N 35°25' E 139°45'5 9.8
2017-Aug-15 23:00N 35°24' E 139°39'1 1.4
2017-Aug-15 22:30N 35°24' E 139°39'0 0.0
2017-Aug-15 22:00N 35°24' E 139°39'0 0.0
2017-Aug-15 21:30N 35°24' E 139°39'0 0.0
2017-Aug-15 21:00N 35°24' E 139°39'0 0.0
2017-Aug-15 20:30N 35°24' E 139°39'0 0.0
2017-Aug-15 20:00N 35°24' E 139°39'0 0.0
2017-Aug-15 19:30N 35°24' E 139°39'0 0.0
2017-Aug-15 19:00N 35°24' E 139°39'0 0.0
2017-Aug-15 18:30N 35°24' E 139°39'0 0.0
2017-Aug-15 18:00N 35°24' E 139°39'0 0.0
2017-Aug-15 17:30N 35°24' E 139°39'0 0.0
2017-Aug-15 17:00N 35°24' E 139°39'0 0.0
2017-Aug-15 16:30N 35°24' E 139°39'0 0.0
2017-Aug-15 16:00N 35°24' E 139°39'0 0.0
2017-Aug-15 15:30N 35°24' E 139°39'0 0.0
2017-Aug-15 15:00N 35°24' E 139°39'0 0.0
2017-Aug-15 14:30N 35°24' E 139°39'0 0.0
2017-Aug-15 14:00N 35°24' E 139°39'0 0.0
2017-Aug-15 13:30N 35°24' E 139°39'0 0.0
2017-Aug-15 13:00N 35°24' E 139°39'0 0.0
2017-Aug-15 12:30N 35°24' E 139°39'0 0.0
2017-Aug-15 12:00N 35°24' E 139°39'0 0.0
2017-Aug-15 11:30N 35°24' E 139°39'0 0.0
2017-Aug-15 11:00N 35°24' E 139°39'0 0.0
2017-Aug-15 10:30N 35°24' E 139°39'0 0.0
2017-Aug-15 10:00N 35°24' E 139°39'0 0.0
2017-Aug-15 09:30N 35°24' E 139°39'0 0.0
2017-Aug-15 09:00N 35°24' E 139°39'0 0.0
2017-Aug-15 08:30N 35°24' E 139°39'0 0.6
2017-Aug-15 08:00N 35°24' E 139°38'3 6.5
2017-Aug-15 07:31N 35°24' E 139°42'4 8.9
2017-Aug-15 07:01N 35°27' E 139°46'3 6.1
2017-Aug-15 06:30N 35°30' E 139°45'2 3.9
2017-Aug-15 06:01N 35°30' E 139°43'0 0.0
2017-Aug-15 05:30N 35°30' E 139°43'0 0.0
2017-Aug-15 05:00N 35°30' E 139°43'0 0.0
2017-Aug-15 04:30N 35°30' E 139°43'0 0.0
2017-Aug-15 04:00N 35°30' E 139°43'0 0.0
2017-Aug-15 03:30N 35°30' E 139°43'0 0.0
2017-Aug-15 03:00N 35°30' E 139°43'0 0.0
2017-Aug-15 02:30N 35°30' E 139°43'0 0.0
2017-Aug-15 02:00N 35°30' E 139°43'0 0.0
2017-Aug-15 01:30N 35°30' E 139°43'0 0.0
2017-Aug-15 01:00N 35°30' E 139°43'0 0.0
2017-Aug-15 00:30N 35°30' E 139°43'0 0.0
2017-Aug-15 00:00N 35°30' E 139°43'3 5.0
2017-Aug-14 23:30N 35°27' E 139°43'5 9.3
2017-Aug-14 23:00N 35°23' E 139°40'1 2.5
2017-Aug-14 22:30N 35°24' E 139°39'0 0.0
2017-Aug-14 22:00N 35°24' E 139°39'0 0.0
2017-Aug-14 21:30N 35°24' E 139°39'0 0.0
2017-Aug-14 20:57N 35°24' E 139°39'0 0.0
2017-Aug-14 20:30N 35°24' E 139°39'0 0.0
2017-Aug-14 20:00N 35°24' E 139°39'0 0.0
2017-Aug-14 19:30N 35°24' E 139°39'0 0.0
2017-Aug-14 19:00N 35°24' E 139°39'0 0.0
2017-Aug-14 18:30N 35°24' E 139°39'0 0.0
2017-Aug-14 18:00N 35°24' E 139°39'0 0.0
2017-Aug-14 17:30N 35°24' E 139°39'0 0.0
2017-Aug-14 17:00N 35°24' E 139°39'0 0.0
2017-Aug-14 16:30N 35°24' E 139°39'0 0.0
2017-Aug-14 16:00N 35°24' E 139°39'0 0.0
2017-Aug-14 15:30N 35°24' E 139°39'0 0.0
2017-Aug-14 15:00N 35°24' E 139°39'0 0.0
2017-Aug-14 14:30N 35°24' E 139°39'0 0.0
2017-Aug-14 14:00N 35°24' E 139°39'0 0.0
2017-Aug-14 13:30N 35°24' E 139°39'0 0.0
2017-Aug-14 13:00N 35°24' E 139°39'0 0.0
2017-Aug-14 12:30N 35°24' E 139°39'0 0.0
2017-Aug-14 11:57N 35°24' E 139°39'0 0.0
2017-Aug-14 11:30N 35°24' E 139°39'0 0.0
2017-Aug-14 11:00N 35°24' E 139°39'0 0.0
2017-Aug-14 10:30N 35°24' E 139°39'0 0.0
2017-Aug-14 09:57N 35°24' E 139°39'0 0.0
2017-Aug-14 09:30N 35°24' E 139°39'0 0.0
2017-Aug-14 09:00N 35°24' E 139°39'0 0.0
2017-Aug-14 08:30N 35°24' E 139°39'0 0.0
2017-Aug-14 08:00N 35°24' E 139°39'0 0.0
2017-Aug-14 07:30N 35°24' E 139°39'0 0.7
2017-Aug-14 07:00N 35°24' E 139°38'1 2.7
2017-Aug-14 06:30N 35°24' E 139°40'0 0.0
2017-Aug-14 06:00N 35°24' E 139°40'0 0.0
2017-Aug-14 05:30N 35°24' E 139°40'0 0.0
2017-Aug-14 05:00N 35°24' E 139°40'0 0.0
2017-Aug-14 04:30N 35°24' E 139°40'0 0.0
2017-Aug-14 04:00N 35°24' E 139°40'0 0.0
2017-Aug-14 03:30N 35°24' E 139°40'0 0.0
2017-Aug-14 03:00N 35°24' E 139°40'0 0.0
2017-Aug-14 02:30N 35°24' E 139°40'0 0.0
2017-Aug-14 02:00N 35°24' E 139°40'0 0.0
2017-Aug-14 01:30N 35°24' E 139°40'0 0.0
2017-Aug-14 01:00N 35°24' E 139°40'0 0.0
2017-Aug-14 00:30N 35°24' E 139°40'0 0.0
2017-Aug-14 00:00N 35°24' E 139°40'0 0.0
2017-Aug-13 23:30N 35°24' E 139°40'0 0.0
2017-Aug-13 23:00N 35°24' E 139°40'1 1.2
2017-Aug-13 22:30N 35°24' E 139°39'1 1.3
2017-Aug-13 22:00N 35°24' E 139°39'0 0.0
2017-Aug-13 21:29N 35°24' E 139°39'0 0.0
2017-Aug-13 21:00N 35°24' E 139°39'0 0.0
2017-Aug-13 20:30N 35°24' E 139°39'0 0.0
2017-Aug-13 19:59N 35°24' E 139°39'0 0.0
2017-Aug-13 19:26N 35°24' E 139°39'0 0.0
2017-Aug-13 18:59N 35°24' E 139°39'0 0.0
2017-Aug-13 18:30N 35°24' E 139°39'0 0.0
2017-Aug-13 18:00N 35°24' E 139°39'0 0.0
2017-Aug-13 17:30N 35°24' E 139°39'0 0.0
2017-Aug-13 16:59N 35°24' E 139°39'0 0.0
2017-Aug-13 16:29N 35°24' E 139°39'0 0.0
2017-Aug-13 15:56N 35°24' E 139°39'0 0.0
2017-Aug-13 15:29N 35°24' E 139°39'0 0.0
2017-Aug-13 14:59N 35°24' E 139°39'0 0.0
2017-Aug-13 14:29N 35°24' E 139°39'0 0.0
2017-Aug-13 13:59N 35°24' E 139°39'0 0.1
2017-Aug-13 13:29N 35°24' E 139°39'0 0.1
2017-Aug-13 12:59N 35°24' E 139°39'0 0.1
2017-Aug-13 12:29N 35°24' E 139°39'0 0.0
2017-Aug-13 11:59N 35°24' E 139°39'0 0.0
2017-Aug-13 11:29N 35°24' E 139°39'0 0.0
2017-Aug-13 10:59N 35°24' E 139°39'0 0.0
2017-Aug-13 10:29N 35°24' E 139°39'0 0.0
2017-Aug-13 09:59N 35°24' E 139°39'0 0.0
2017-Aug-13 09:29N 35°24' E 139°39'0 0.0
2017-Aug-13 08:59N 35°24' E 139°39'0 0.0
2017-Aug-13 08:30N 35°24' E 139°39'0 0.7
2017-Aug-13 08:00N 35°24' E 139°38'3 5.9
2017-Aug-13 07:30N 35°24' E 139°42'510.6
2017-Aug-13 07:00N 35°28' E 139°46'3 5.2
2017-Aug-13 06:30N 35°30' E 139°45'1 2.6
2017-Aug-13 06:00N 35°30' E 139°43'0 0.0
2017-Aug-13 05:30N 35°30' E 139°43'0 0.0
2017-Aug-13 05:00N 35°30' E 139°43'0 0.0
2017-Aug-13 04:30N 35°30' E 139°43'0 0.0
2017-Aug-13 04:00N 35°30' E 139°43'0 0.0
2017-Aug-13 03:30N 35°30' E 139°43'0 0.0
2017-Aug-13 03:00N 35°30' E 139°43'0 0.0
2017-Aug-13 02:30N 35°30' E 139°43'0 0.0
2017-Aug-13 02:00N 35°30' E 139°43'0 0.0
2017-Aug-13 01:30N 35°30' E 139°43'0 0.0
2017-Aug-13 01:00N 35°30' E 139°43'0 0.0
2017-Aug-13 00:30N 35°30' E 139°43'0 0.0
2017-Aug-13 00:00N 35°30' E 139°43'0 0.0
2017-Aug-12 23:30N 35°30' E 139°43'0 0.0
2017-Aug-12 23:00N 35°30' E 139°43'0 0.0
2017-Aug-12 22:27N 35°30' E 139°43'1 1.2
2017-Aug-12 22:00N 35°29' E 139°43'4 8.3
2017-Aug-12 21:30N 35°25' E 139°44'2 4.5
2017-Aug-12 21:00N 35°23' E 139°45'0 0.0
2017-Aug-12 20:30N 35°23' E 139°45'0 0.0
2017-Aug-12 20:00N 35°23' E 139°45'0 0.0
2017-Aug-12 19:30N 35°23' E 139°45'0 0.0
2017-Aug-12 19:00N 35°23' E 139°45'0 0.0
2017-Aug-12 18:30N 35°23' E 139°45'0 0.0
2017-Aug-12 18:00N 35°23' E 139°45'0 0.0
2017-Aug-12 17:30N 35°23' E 139°45'0 0.0
2017-Aug-12 17:00N 35°23' E 139°45'0 0.1
2017-Aug-12 16:30N 35°23' E 139°45'0 0.0
2017-Aug-12 16:00N 35°23' E 139°45'0 0.0
2017-Aug-12 15:30N 35°23' E 139°45'0 0.0
2017-Aug-12 15:00N 35°23' E 139°45'0 0.1
2017-Aug-12 14:30N 35°23' E 139°45'4 7.7
2017-Aug-12 14:00N 35°24' E 139°40'1 2.5
2017-Aug-12 13:29N 35°24' E 139°39'0 0.0
2017-Aug-12 12:59N 35°24' E 139°39'0 0.0
2017-Aug-12 12:29N 35°24' E 139°39'0 0.0
2017-Aug-12 11:59N 35°24' E 139°39'0 0.0
2017-Aug-12 11:29N 35°24' E 139°39'0 0.0
2017-Aug-12 10:59N 35°24' E 139°39'0 0.0
2017-Aug-12 10:29N 35°24' E 139°39'0 0.0
2017-Aug-12 09:59N 35°24' E 139°39'0 0.0
2017-Aug-12 09:29N 35°24' E 139°39'0 0.0
2017-Aug-12 08:59N 35°24' E 139°39'0 0.0
2017-Aug-12 08:29N 35°24' E 139°39'0 0.0
2017-Aug-12 07:59N 35°24' E 139°39'0 0.0
2017-Aug-12 07:29N 35°24' E 139°39'0 0.0
2017-Aug-12 06:59N 35°24' E 139°39'0 0.5
2017-Aug-12 06:30N 35°24' E 139°38'3 6.4
2017-Aug-12 06:00N 35°24' E 139°42'612.1
2017-Aug-12 05:30N 35°29' E 139°47'3 5.5
2017-Aug-12 05:00N 35°30' E 139°44'1 1.8
2017-Aug-12 04:30N 35°30' E 139°43'0 0.0
2017-Aug-12 04:00N 35°30' E 139°43'0 0.0
2017-Aug-12 03:30N 35°30' E 139°43'0 0.0
2017-Aug-12 03:00N 35°30' E 139°43'0 0.0
2017-Aug-12 02:30N 35°30' E 139°43'0 0.0
2017-Aug-12 02:00N 35°30' E 139°43'0 0.0
2017-Aug-12 01:30N 35°30' E 139°43'0 0.0
2017-Aug-12 01:00N 35°30' E 139°43'0 0.0
2017-Aug-12 00:30N 35°30' E 139°43'0 0.0
2017-Aug-12 00:00N 35°30' E 139°43'0 0.0
2017-Aug-11 23:30N 35°30' E 139°43'0 0.0
2017-Aug-11 23:00N 35°30' E 139°43'0 0.0
2017-Aug-11 22:30N 35°30' E 139°43'1 1.8
2017-Aug-11 22:00N 35°29' E 139°42'5 9.1
2017-Aug-11 21:30N 35°25' E 139°45'2 4.7
2017-Aug-11 21:00N 35°23' E 139°44'0 0.0
2017-Aug-11 20:30N 35°23' E 139°44'0 0.0
2017-Aug-11 20:00N 35°23' E 139°44'0 0.0
2017-Aug-11 19:30N 35°23' E 139°44'0 0.0
2017-Aug-11 19:00N 35°23' E 139°44'0 0.0
2017-Aug-11 18:30N 35°23' E 139°44'0 0.0
2017-Aug-11 18:00N 35°23' E 139°44'0 0.0
2017-Aug-11 17:30N 35°23' E 139°44'0 0.0
2017-Aug-11 17:00N 35°23' E 139°44'0 0.0
2017-Aug-11 16:30N 35°23' E 139°44'0 0.0
2017-Aug-11 16:00N 35°23' E 139°44'0 0.0
2017-Aug-11 15:30N 35°23' E 139°44'0 0.0
2017-Aug-11 15:00N 35°23' E 139°44'0 0.0
2017-Aug-11 14:30N 35°23' E 139°44'4 3.9
2017-Aug-11 13:30N 35°24' E 139°40'1 1.9
2017-Aug-11 12:58N 35°24' E 139°39'0 0.0
2017-Aug-11 12:25N 35°24' E 139°39'0 0.0
2017-Aug-11 11:58N 35°24' E 139°39'0 0.0
2017-Aug-11 11:28N 35°24' E 139°39'0 0.0
2017-Aug-11 10:58N 35°24' E 139°39'0 0.0
2017-Aug-11 10:28N 35°24' E 139°39'0 0.0
2017-Aug-11 09:58N 35°24' E 139°39'0 0.0
2017-Aug-11 09:28N 35°24' E 139°39'0 0.0
2017-Aug-11 08:58N 35°24' E 139°39'0 0.0
2017-Aug-11 08:28N 35°24' E 139°39'0 0.0
2017-Aug-11 07:58N 35°24' E 139°39'0 0.0
2017-Aug-11 07:28N 35°24' E 139°39'0 0.0
2017-Aug-11 06:58N 35°24' E 139°39'0 0.3
2017-Aug-11 06:31N 35°24' E 139°38'2 4.5
2017-Aug-11 06:00N 35°23' E 139°41'510.6
2017-Aug-11 05:30N 35°27' E 139°46'3 6.6
2017-Aug-11 05:01N 35°30' E 139°46'2 4.5
2017-Aug-11 04:31N 35°30' E 139°43'0 0.0
2017-Aug-11 04:00N 35°30' E 139°43'0 0.0
2017-Aug-11 03:31N 35°30' E 139°43'0 0.0
2017-Aug-11 03:01N 35°30' E 139°43'0 0.0
2017-Aug-11 02:28N 35°30' E 139°43'0 0.0
2017-Aug-11 01:58N 35°30' E 139°43'0 0.0
2017-Aug-11 01:28N 35°30' E 139°43'0 0.0
2017-Aug-11 00:58N 35°30' E 139°43'0 0.0
2017-Aug-11 00:28N 35°30' E 139°43'0 0.0
2017-Aug-10 23:58N 35°30' E 139°43'0 0.0
2017-Aug-10 23:28N 35°30' E 139°43'0 0.0
2017-Aug-10 22:58N 35°30' E 139°43'0 0.1
2017-Aug-10 22:30N 35°30' E 139°43'2 4.4
2017-Aug-10 22:00N 35°28' E 139°43'3 5.6
2017-Aug-10 21:30N 35°26' E 139°45'2 4.2
2017-Aug-10 21:00N 35°24' E 139°44'0 0.0
2017-Aug-10 20:28N 35°24' E 139°44'0 0.0
2017-Aug-10 19:58N 35°24' E 139°44'0 0.0
2017-Aug-10 19:28N 35°24' E 139°44'0 0.0
2017-Aug-10 18:58N 35°24' E 139°44'0 0.0
2017-Aug-10 18:28N 35°24' E 139°44'0 0.0
2017-Aug-10 17:58N 35°24' E 139°44'0 0.2
2017-Aug-10 17:28N 35°24' E 139°44'0 0.0
2017-Aug-10 16:58N 35°24' E 139°44'0 0.0
2017-Aug-10 16:28N 35°24' E 139°44'0 0.0
2017-Aug-10 15:58N 35°24' E 139°44'0 0.0
2017-Aug-10 15:28N 35°24' E 139°44'0 0.2
2017-Aug-10 15:00N 35°24' E 139°44'4 8.0
2017-Aug-10 14:30N 35°24' E 139°39'1 0.7
2017-Aug-10 13:28N 35°24' E 139°39'0 0.0
2017-Aug-10 12:58N 35°24' E 139°39'0 0.0
2017-Aug-10 12:28N 35°24' E 139°39'0 0.0
2017-Aug-10 11:58N 35°24' E 139°39'0 0.0
2017-Aug-10 11:28N 35°24' E 139°39'0 0.0
2017-Aug-10 10:58N 35°24' E 139°39'0 0.0
2017-Aug-10 10:28N 35°24' E 139°39'0 0.0
2017-Aug-10 09:58N 35°24' E 139°39'0 0.0
2017-Aug-10 09:28N 35°24' E 139°39'0 0.1
2017-Aug-10 08:58N 35°24' E 139°39'0 0.1
2017-Aug-10 08:28N 35°24' E 139°39'0 0.4
2017-Aug-10 08:01N 35°24' E 139°38'3 5.5
2017-Aug-10 07:31N 35°24' E 139°42'611.8
2017-Aug-10 07:00N 35°27' E 139°48'611.1
2017-Aug-10 06:31N 35°30' E 139°54'4 8.7
2017-Aug-10 06:00N 35°27' E 139°58'0 0.2
2017-Aug-10 05:31N 35°27' E 139°58'0 0.0
2017-Aug-10 04:58N 35°27' E 139°58'0 0.0
2017-Aug-10 04:28N 35°27' E 139°58'0 0.0
2017-Aug-10 03:58N 35°27' E 139°58'0 0.0
2017-Aug-10 03:28N 35°27' E 139°58'0 0.0
2017-Aug-10 02:58N 35°27' E 139°58'0 0.0
2017-Aug-10 02:28N 35°27' E 139°58'0 0.0
2017-Aug-10 01:58N 35°27' E 139°58'0 0.0
2017-Aug-10 01:28N 35°27' E 139°58'0 0.0
2017-Aug-10 00:56N 35°27' E 139°58'1 2.6
2017-Aug-10 00:26N 35°29' E 139°57'511.2
2017-Aug-10 00:00N 35°28' E 139°52'612.0
2017-Aug-09 23:30N 35°25' E 139°45'510.1
2017-Aug-09 23:00N 35°24' E 139°39'1 1.8
2017-Aug-09 22:28N 35°24' E 139°39'0 0.0
2017-Aug-09 21:56N 35°24' E 139°39'0 0.0
2017-Aug-09 21:29N 35°24' E 139°39'0 0.0
2017-Aug-09 20:58N 35°24' E 139°39'0 0.0
2017-Aug-09 20:28N 35°24' E 139°39'0 0.0
2017-Aug-09 19:58N 35°24' E 139°39'0 0.0
2017-Aug-09 19:29N 35°24' E 139°39'0 0.0
2017-Aug-09 18:58N 35°24' E 139°39'0 0.0
2017-Aug-09 18:28N 35°24' E 139°39'0 0.0
2017-Aug-09 17:58N 35°24' E 139°39'0 0.0
2017-Aug-09 17:28N 35°24' E 139°39'0 0.0
2017-Aug-09 16:59N 35°24' E 139°39'0 0.0
2017-Aug-09 16:26N 35°24' E 139°39'0 0.0
2017-Aug-09 15:59N 35°24' E 139°39'0 0.0
2017-Aug-09 15:29N 35°24' E 139°39'0 0.0
2017-Aug-09 14:58N 35°24' E 139°39'0 0.0
2017-Aug-09 14:28N 35°24' E 139°39'0 0.0
2017-Aug-09 13:59N 35°24' E 139°39'0 0.0
2017-Aug-09 13:28N 35°24' E 139°39'0 0.0
2017-Aug-09 12:56N 35°24' E 139°39'0 0.0
2017-Aug-09 12:28N 35°24' E 139°39'0 0.0
2017-Aug-09 11:58N 35°24' E 139°39'0 0.0
2017-Aug-09 11:29N 35°24' E 139°39'0 0.0
2017-Aug-09 10:59N 35°24' E 139°39'0 0.0
2017-Aug-09 10:26N 35°24' E 139°39'0 0.0
2017-Aug-09 09:59N 35°24' E 139°39'0 0.0
2017-Aug-09 09:29N 35°24' E 139°39'0 0.0
2017-Aug-09 08:58N 35°24' E 139°39'0 0.0
2017-Aug-09 08:29N 35°24' E 139°39'0 0.7
2017-Aug-09 08:00N 35°24' E 139°38'3 5.9
2017-Aug-09 07:30N 35°22' E 139°42'2 3.8
2017-Aug-09 06:59N 35°22' E 139°44'0 0.0
2017-Aug-09 06:29N 35°22' E 139°44'0 0.0
2017-Aug-09 05:59N 35°22' E 139°44'0 0.0
2017-Aug-09 05:29N 35°22' E 139°44'0 0.0
2017-Aug-09 04:59N 35°22' E 139°44'0 0.0
2017-Aug-09 04:29N 35°22' E 139°44'0 0.0
2017-Aug-09 03:59N 35°22' E 139°44'0 0.0
2017-Aug-09 03:29N 35°22' E 139°44'0 0.0
2017-Aug-09 02:59N 35°22' E 139°44'0 0.1
2017-Aug-09 02:29N 35°22' E 139°44'0 0.1
2017-Aug-09 01:56N 35°22' E 139°44'1 1.6
2017-Aug-09 01:30N 35°22' E 139°43'3 6.5
2017-Aug-09 01:00N 35°24' E 139°40'0 0.2
2017-Aug-09 00:25N 35°24' E 139°40'0 0.0
2017-Aug-08 23:58N 35°24' E 139°40'0 0.0
2017-Aug-08 23:28N 35°24' E 139°40'0 0.0
2017-Aug-08 22:58N 35°24' E 139°40'0 0.0
2017-Aug-08 22:25N 35°24' E 139°40'0 0.0
2017-Aug-08 21:58N 35°24' E 139°40'0 0.0
2017-Aug-08 21:28N 35°24' E 139°40'0 0.0
2017-Aug-08 20:58N 35°24' E 139°40'0 0.0
2017-Aug-08 20:28N 35°24' E 139°40'0 0.0
2017-Aug-08 19:58N 35°24' E 139°40'0 0.0
2017-Aug-08 19:28N 35°24' E 139°40'0 0.0
2017-Aug-08 18:58N 35°24' E 139°40'0 0.0
2017-Aug-08 18:28N 35°24' E 139°40'0 0.0
2017-Aug-08 17:58N 35°24' E 139°40'0 0.0
2017-Aug-08 17:28N 35°24' E 139°40'0 0.0
2017-Aug-08 16:58N 35°24' E 139°40'0 0.0
2017-Aug-08 16:28N 35°24' E 139°40'0 0.0
2017-Aug-08 15:58N 35°24' E 139°40'0 0.0
2017-Aug-08 15:28N 35°24' E 139°40'0 0.0
2017-Aug-08 14:58N 35°24' E 139°40'0 0.0
2017-Aug-08 14:28N 35°24' E 139°40'0 0.0
2017-Aug-08 13:58N 35°24' E 139°40'0 0.0
2017-Aug-08 13:28N 35°24' E 139°40'0 0.0
2017-Aug-08 12:58N 35°24' E 139°40'0 0.0
2017-Aug-08 12:28N 35°24' E 139°40'0 0.0
2017-Aug-08 11:58N 35°24' E 139°40'0 0.0
2017-Aug-08 11:28N 35°24' E 139°40'0 0.0
2017-Aug-08 10:58N 35°24' E 139°40'  

Dump ship's entire track history